createdAt,value
2019-05-22T00:01:14.705Z,28.50
2019-05-22T00:03:51.987Z,24.40
2019-05-22T00:06:30.110Z,21.27
2019-05-22T00:09:09.907Z,28.37
2019-05-22T00:11:46.575Z,33.10
2019-05-22T00:14:20.138Z,24.93
2019-05-22T00:16:51.644Z,30.10
2019-05-22T00:19:24.655Z,26.20
2019-05-22T00:22:00.896Z,24.50
2019-05-22T00:24:32.399Z,27.20
2019-05-22T00:27:04.604Z,32.40
2019-05-22T00:29:35.511Z,32.30
2019-05-22T00:32:07.533Z,27.23
2019-05-22T00:34:40.176Z,25.07
2019-05-22T00:37:11.572Z,26.07
2019-05-22T00:39:43.145Z,22.33
2019-05-22T00:42:14.675Z,32.07
2019-05-22T00:44:47.316Z,29.50
2019-05-22T00:47:20.081Z,29.63
2019-05-22T00:49:55.231Z,31.27
2019-05-22T00:52:43.791Z,29.10
2019-05-22T00:55:27.699Z,32.00
2019-05-22T00:58:05.248Z,28.37
2019-05-22T01:00:45.434Z,37.60
2019-05-22T01:03:21.485Z,31.73
2019-05-22T01:05:52.154Z,29.83
2019-05-22T01:08:28.150Z,31.60
2019-05-22T01:11:00.848Z,32.87
2019-05-22T01:13:33.024Z,29.70
2019-05-22T01:16:05.537Z,30.43
2019-05-22T01:18:38.147Z,24.67
2019-05-22T01:21:10.333Z,30.80
2019-05-22T01:23:41.311Z,36.97
2019-05-22T01:26:15.973Z,28.37
2019-05-22T01:28:50.502Z,29.67
2019-05-22T01:31:27.159Z,33.37
2019-05-22T01:34:05.852Z,27.33
2019-05-22T01:36:44.548Z,29.43
2019-05-22T01:39:42.796Z,35.80
2019-05-22T01:42:16.781Z,26.93
2019-05-22T01:45:01.503Z,34.87
2019-05-22T01:47:40.675Z,27.80
2019-05-22T01:50:15.967Z,30.30
2019-05-22T01:52:48.506Z,25.87
2019-05-22T01:55:21.161Z,27.33
2019-05-22T01:57:53.140Z,26.40
2019-05-22T02:00:24.199Z,29.03
2019-05-22T02:02:56.811Z,28.33
2019-05-22T02:05:26.950Z,31.37
2019-05-22T02:07:57.645Z,29.20
2019-05-22T02:10:32.302Z,27.90
2019-05-22T02:13:05.361Z,23.63
2019-05-22T02:15:37.412Z,31.13
2019-05-22T02:18:13.308Z,32.17
2019-05-22T02:20:45.196Z,28.77
2019-05-22T02:23:16.960Z,28.83
2019-05-22T02:25:47.909Z,23.80
2019-05-22T02:28:19.818Z,29.30
2019-05-22T02:30:50.328Z,29.63
2019-05-22T02:33:22.296Z,29.50
2019-05-22T02:35:53.955Z,28.60
2019-05-22T02:38:25.665Z,31.00
2019-05-22T02:40:58.611Z,35.00
2019-05-22T02:43:30.200Z,30.97
2019-05-22T02:46:00.764Z,35.43
2019-05-22T02:48:31.263Z,42.00
2019-05-22T02:51:01.922Z,42.30
2019-05-22T02:53:33.895Z,48.17
2019-05-22T02:56:06.298Z,47.27
2019-05-22T02:58:37.239Z,50.17
2019-05-22T03:01:07.951Z,46.47
2019-05-22T03:03:38.840Z,48.13
2019-05-22T03:06:12.269Z,51.23
2019-05-22T03:09:15.829Z,47.53
2019-05-22T03:11:58.039Z,42.43
2019-05-22T03:14:31.700Z,47.53
2019-05-22T03:17:07.599Z,51.17
2019-05-22T03:19:42.641Z,49.07
2019-05-22T03:22:31.277Z,46.83
2019-05-22T03:25:06.358Z,54.63
2019-05-22T03:27:43.290Z,39.67
2019-05-22T03:30:18.835Z,41.37
2019-05-22T03:32:51.018Z,35.43
2019-05-22T03:35:23.882Z,33.40
2019-05-22T03:37:56.394Z,34.50
2019-05-22T03:40:28.633Z,37.13
2019-05-22T03:43:02.973Z,28.63
2019-05-22T03:45:33.348Z,27.43
2019-05-22T03:48:07.447Z,30.70
2019-05-22T03:50:38.116Z,30.53
2019-05-22T03:53:16.949Z,38.43
2019-05-22T03:55:48.928Z,30.60
2019-05-22T03:58:19.754Z,40.97
2019-05-22T04:00:52.112Z,36.10
2019-05-22T04:03:23.861Z,39.13
2019-05-22T04:05:55.958Z,49.13
2019-05-22T04:08:27.473Z,39.33
2019-05-22T04:11:02.260Z,40.50
2019-05-22T04:13:33.783Z,41.90
2019-05-22T04:16:06.877Z,40.50
2019-05-22T04:18:37.507Z,34.50
2019-05-22T04:21:07.943Z,42.73
2019-05-22T04:23:39.703Z,39.57
2019-05-22T04:26:12.625Z,36.80
2019-05-22T04:28:49.080Z,35.50
2019-05-22T04:31:21.098Z,39.50
2019-05-22T04:33:51.974Z,36.17
2019-05-22T04:36:24.219Z,33.50
2019-05-22T04:38:54.903Z,35.00
2019-05-22T04:41:25.575Z,34.07
2019-05-22T04:43:55.771Z,35.63
2019-05-22T04:46:27.164Z,30.47
2019-05-22T04:48:57.896Z,32.17
2019-05-22T04:54:28.392Z,34.97
2019-05-22T04:57:00.522Z,38.50
2019-05-22T04:59:31.999Z,30.10
2019-05-22T05:02:03.201Z,31.97
2019-05-22T05:04:33.701Z,29.80
2019-05-22T05:07:04.527Z,30.40
2019-05-22T05:09:35.766Z,35.70
2019-05-22T05:12:11.022Z,33.87
2019-05-22T05:14:45.156Z,32.00
2019-05-22T05:23:23.377Z,36.03
2019-05-22T05:25:53.655Z,34.87
2019-05-22T05:28:26.964Z,39.77
2019-05-22T05:31:01.979Z,34.60
2019-05-22T05:33:36.371Z,33.13
2019-05-22T05:36:09.072Z,34.63
2019-05-22T05:38:39.475Z,33.17
2019-05-22T05:43:18.097Z,34.23
2019-05-22T05:45:50.284Z,41.60
2019-05-22T05:48:23.957Z,38.50
2019-05-22T05:51:30.249Z,40.97
2019-05-22T05:54:05.940Z,46.77
2019-05-22T05:56:39.523Z,38.80
2019-05-22T05:59:10.596Z,46.03
2019-05-22T06:01:49.583Z,39.43
2019-05-22T06:04:34.800Z,42.30
2019-05-22T06:07:27.806Z,41.50
2019-05-22T06:10:31.463Z,44.27
2019-05-22T06:13:03.417Z,38.63
2019-05-22T06:16:00.387Z,44.57
2019-05-22T06:18:36.266Z,44.13
2019-05-22T06:21:07.450Z,41.40
2019-05-22T06:24:15.390Z,38.23
2019-05-22T06:27:31.165Z,43.67
2019-05-22T06:30:02.733Z,44.30
2019-05-22T06:33:36.682Z,43.33
2019-05-22T06:36:14.459Z,41.67
2019-05-22T06:39:03.281Z,43.50
2019-05-22T06:41:37.473Z,38.90
2019-05-22T06:44:43.173Z,39.67
2019-05-22T06:47:23.278Z,39.60
2019-05-22T06:49:57.810Z,38.27
2019-05-22T06:52:29.074Z,41.63
2019-05-22T06:55:00.105Z,46.30
2019-05-22T06:57:34.972Z,49.60
2019-05-22T07:00:15.214Z,36.60
2019-05-22T07:02:45.554Z,42.60
2019-05-22T07:05:16.435Z,42.97
2019-05-22T07:07:47.945Z,38.83
2019-05-22T07:10:19.171Z,40.63
2019-05-22T07:12:51.040Z,46.17
2019-05-22T07:15:59.012Z,38.87
2019-05-22T07:18:31.547Z,41.07
2019-05-22T07:21:02.126Z,37.37
2019-05-22T07:23:34.984Z,35.60
2019-05-22T07:26:06.057Z,42.83
2019-05-22T07:28:37.865Z,36.80
2019-05-22T07:31:08.551Z,37.30
2019-05-22T07:33:39.348Z,38.60
2019-05-22T07:36:15.284Z,39.47
2019-05-22T07:38:42.434Z,37.50
2019-05-22T07:41:12.842Z,36.90
2019-05-22T07:43:43.534Z,28.20
2019-05-22T07:46:14.137Z,34.97
2019-05-22T07:48:44.422Z,30.45
2019-05-22T07:51:16.020Z,33.47
2019-05-22T07:53:47.556Z,32.73
2019-05-22T07:56:20.238Z,37.17
2019-05-22T07:58:50.967Z,30.37
2019-05-22T08:01:23.745Z,29.97
2019-05-22T08:03:56.159Z,31.97
2019-05-22T08:06:26.967Z,32.03
2019-05-22T08:08:59.988Z,27.50
2019-05-22T08:11:30.510Z,33.88
2019-05-22T08:14:01.199Z,29.37
2019-05-22T08:16:31.589Z,28.77
2019-05-22T08:19:01.885Z,29.55
2019-05-22T08:21:32.570Z,28.85
2019-05-22T08:24:03.386Z,26.97
2019-05-22T08:26:52.932Z,36.05
2019-05-22T08:29:07.379Z,29.82
2019-05-22T08:31:39.126Z,27.67
2019-05-22T08:34:10.766Z,25.77
2019-05-22T08:36:41.446Z,22.82
2019-05-22T08:39:14.951Z,28.02
2019-05-22T08:41:45.308Z,28.45
2019-05-22T08:44:17.543Z,23.57
2019-05-22T08:46:49.574Z,23.57
2019-05-22T08:49:20.320Z,24.65
2019-05-22T08:51:51.636Z,24.05
2019-05-22T08:54:21.996Z,23.52
2019-05-22T08:56:54.039Z,28.67
2019-05-22T08:59:24.528Z,24.60
2019-05-22T09:01:55.166Z,22.50
2019-05-22T09:04:25.587Z,25.83
2019-05-22T09:06:56.063Z,23.67
2019-05-22T09:10:06.969Z,23.67
2019-05-22T09:12:37.958Z,22.40
2019-05-22T09:15:08.712Z,25.45
2019-05-22T09:17:41.018Z,22.62
2019-05-22T09:20:12.023Z,21.02
2019-05-22T09:22:43.739Z,23.83
2019-05-22T09:25:16.099Z,20.12
2019-05-22T09:27:47.419Z,22.27
2019-05-22T09:30:18.259Z,19.70
2019-05-22T09:32:48.689Z,24.02
2019-05-22T09:35:20.177Z,20.97
2019-05-22T09:37:50.907Z,16.20
2019-05-22T09:40:21.414Z,25.85
2019-05-22T09:42:51.853Z,23.52
2019-05-22T09:45:22.710Z,24.02
2019-05-22T09:47:54.038Z,26.27
2019-05-22T09:50:25.177Z,23.80
2019-05-22T09:52:58.067Z,21.05
2019-05-22T09:55:28.661Z,17.90
2019-05-22T09:57:59.062Z,24.55
2019-05-22T10:00:30.258Z,25.75
2019-05-22T10:03:01.153Z,25.17
2019-05-22T10:05:32.157Z,21.82
2019-05-22T10:08:03.284Z,18.20
2019-05-22T10:10:34.945Z,20.00
2019-05-22T10:13:05.588Z,22.42
2019-05-22T10:15:36.259Z,21.33
2019-05-22T10:18:07.749Z,17.40
2019-05-22T10:20:39.032Z,24.43
2019-05-22T10:23:15.460Z,18.55
2019-05-22T10:25:42.508Z,18.25
2019-05-22T10:28:13.940Z,20.55
2019-05-22T10:30:44.709Z,18.55
2019-05-22T10:33:15.392Z,16.62
2019-05-22T10:35:46.052Z,20.12
2019-05-22T10:38:16.675Z,19.35
2019-05-22T10:40:47.389Z,12.35
2019-05-22T10:43:19.617Z,14.63
2019-05-22T10:45:50.053Z,17.12
2019-05-22T10:48:20.493Z,22.77
2019-05-22T10:50:50.791Z,18.90
2019-05-22T10:53:32.920Z,16.85
2019-05-22T10:55:54.343Z,21.68
2019-05-22T10:58:24.683Z,20.55
2019-05-22T11:00:54.958Z,16.45
2019-05-22T11:03:26.212Z,17.67
2019-05-22T11:06:07.139Z,15.38
2019-05-22T11:08:33.540Z,17.20
2019-05-22T11:11:00.816Z,18.17
2019-05-22T11:13:34.169Z,15.70
2019-05-22T11:16:04.497Z,12.13
2019-05-22T11:18:36.615Z,16.75
2019-05-22T11:21:08.246Z,14.20
2019-05-22T11:23:51.391Z,15.20
2019-05-22T11:26:10.931Z,17.42
2019-05-22T11:28:42.147Z,13.43
2019-05-22T11:31:12.862Z,17.10
2019-05-22T11:33:43.676Z,17.50
2019-05-22T11:36:14.355Z,18.12
2019-05-22T11:38:44.953Z,14.68
2019-05-22T11:41:15.931Z,15.72
2019-05-22T11:43:46.883Z,20.08
2019-05-22T11:46:17.820Z,17.10
2019-05-22T11:48:49.258Z,31.37
2019-05-22T11:51:22.439Z,17.42
2019-05-22T11:54:08.134Z,21.37
2019-05-22T11:56:26.268Z,18.57
2019-05-22T11:58:56.508Z,19.48
2019-05-22T12:01:27.055Z,13.98
2019-05-22T12:03:58.926Z,18.40
2019-05-22T12:06:30.625Z,13.13
2019-05-22T12:09:01.433Z,14.05
2019-05-22T12:11:33.436Z,14.80
2019-05-22T12:14:05.987Z,17.75
2019-05-22T12:16:36.801Z,16.32
2019-05-22T12:19:07.943Z,15.70
2019-05-22T12:21:38.588Z,14.80
2019-05-22T12:24:26.039Z,16.05
2019-05-22T12:26:41.379Z,16.77
2019-05-22T12:29:11.827Z,16.75
2019-05-22T12:31:42.488Z,18.52
2019-05-22T12:34:12.689Z,17.15
2019-05-22T12:36:43.833Z,17.75
2019-05-22T12:39:15.761Z,11.43
2019-05-22T12:41:47.428Z,16.57
2019-05-22T12:44:18.970Z,11.68
2019-05-22T12:46:50.204Z,14.85
2019-05-22T12:49:21.084Z,18.67
2019-05-22T12:51:51.494Z,16.80
2019-05-22T12:54:21.957Z,19.05
2019-05-22T12:56:52.160Z,13.83
2019-05-22T12:59:23.753Z,19.32
2019-05-22T13:01:54.321Z,16.07
2019-05-22T13:04:25.465Z,14.07
2019-05-22T13:06:56.131Z,12.68
2019-05-22T13:09:27.747Z,18.80
2019-05-22T13:11:59.206Z,17.67
2019-05-22T13:14:29.696Z,11.88
2019-05-22T13:17:02.022Z,13.85
2019-05-22T13:19:35.128Z,12.73
2019-05-22T13:22:08.463Z,15.85
2019-05-22T13:24:39.875Z,15.10
2019-05-22T13:27:13.797Z,13.98
2019-05-22T13:29:45.918Z,15.08
2019-05-22T13:32:18.129Z,19.87
2019-05-22T13:34:49.193Z,19.87
2019-05-22T13:37:19.534Z,20.32
2019-05-22T13:39:50.237Z,13.18
2019-05-22T13:42:22.646Z,16.23
2019-05-22T13:44:53.483Z,18.30
2019-05-22T13:47:24.823Z,17.10
2019-05-22T13:49:56.333Z,17.07
2019-05-22T13:52:26.757Z,11.15
2019-05-22T13:54:58.565Z,15.08
2019-05-22T13:57:30.219Z,14.78
2019-05-22T14:00:01.422Z,17.80
2019-05-22T14:02:32.502Z,19.00
2019-05-22T14:05:03.557Z,18.67
2019-05-22T14:07:33.792Z,17.45
2019-05-22T14:10:04.407Z,17.50
2019-05-22T14:12:34.688Z,16.60
2019-05-22T14:15:06.802Z,18.90
2019-05-22T14:17:38.103Z,16.77
2019-05-22T14:20:09.556Z,19.65
2019-05-22T14:22:40.756Z,16.55
2019-05-22T14:25:11.638Z,16.35
2019-05-22T14:27:42.189Z,17.55
2019-05-22T14:30:13.650Z,19.15
2019-05-22T14:32:45.440Z,16.42
2019-05-22T14:35:17.154Z,17.87
2019-05-22T14:37:47.511Z,17.15
2019-05-22T14:40:18.191Z,15.03
2019-05-22T14:42:49.002Z,18.62
2019-05-22T14:45:19.851Z,21.65
2019-05-22T14:47:50.128Z,23.20
2019-05-22T14:50:21.216Z,18.55
2019-05-22T14:52:51.915Z,15.18
2019-05-22T14:55:22.558Z,24.40
2019-05-22T14:57:55.242Z,18.32
2019-05-22T15:00:27.208Z,21.00
2019-05-22T15:02:59.233Z,23.27
2019-05-22T15:05:31.422Z,21.80
2019-05-22T15:08:03.983Z,21.62
2019-05-22T15:10:34.477Z,20.92
2019-05-22T15:13:06.110Z,21.25
2019-05-22T15:15:40.321Z,21.48
2019-05-22T15:18:08.988Z,17.90
2019-05-22T15:20:46.997Z,17.12
2019-05-22T15:23:17.587Z,13.30
2019-05-22T15:25:47.766Z,19.65
2019-05-22T15:28:18.953Z,14.53
2019-05-22T15:30:50.090Z,13.45
2019-05-22T15:33:20.501Z,10.98
2019-05-22T15:35:51.435Z,11.18
2019-05-22T15:38:22.857Z,12.53
2019-05-22T15:40:54.221Z,8.48
2019-05-22T15:43:27.182Z,7.28
2019-05-22T15:46:00.295Z,6.42
2019-05-22T15:48:33.738Z,4.95
2019-05-22T15:51:10.418Z,9.23
2019-05-22T15:53:41.407Z,6.35
2019-05-22T15:56:12.219Z,7.72
2019-05-22T15:58:48.995Z,5.62
2019-05-22T16:01:21.893Z,6.87
2019-05-22T16:03:53.331Z,9.68
2019-05-22T16:06:28.281Z,6.10
2019-05-22T16:08:59.340Z,8.98
2019-05-22T16:11:31.343Z,7.30
2019-05-22T16:14:03.692Z,9.70
2019-05-22T16:16:36.055Z,5.90
2019-05-22T16:19:08.998Z,8.60
2019-05-22T16:21:43.130Z,4.65
2019-05-22T16:24:15.652Z,5.50
2019-05-22T16:26:46.816Z,6.30
2019-05-22T16:29:17.487Z,5.17
2019-05-22T16:31:48.366Z,5.12
2019-05-22T16:34:18.937Z,4.28
2019-05-22T16:36:49.732Z,4.50
2019-05-22T16:39:20.507Z,4.33
2019-05-22T16:41:51.282Z,4.35
2019-05-22T16:44:22.144Z,2.50
2019-05-22T16:46:53.096Z,5.10
2019-05-22T16:49:24.158Z,5.42
2019-05-22T16:51:55.185Z,3.33
2019-05-22T16:54:26.615Z,2.20
2019-05-22T16:56:58.269Z,5.72
2019-05-22T16:59:29.405Z,2.90
2019-05-22T17:02:00.873Z,9.85
2019-05-22T17:04:32.167Z,1.65
2019-05-22T17:07:02.436Z,1.37
2019-05-22T17:09:32.777Z,2.27
2019-05-22T17:12:05.240Z,6.87
2019-05-22T17:14:37.158Z,4.95
2019-05-22T17:17:09.658Z,2.80
2019-05-22T17:19:40.467Z,2.10
2019-05-22T17:22:12.916Z,1.05
2019-05-22T17:24:44.248Z,5.03
2019-05-22T17:27:16.606Z,4.47
2019-05-22T17:29:48.514Z,4.45
2019-05-22T17:32:19.838Z,7.55
2019-05-22T17:34:50.685Z,7.92
2019-05-22T17:37:22.899Z,5.75
2019-05-22T17:39:53.540Z,7.53
2019-05-22T17:42:27.339Z,5.53
2019-05-22T17:44:58.137Z,12.15
2019-05-22T17:47:29.322Z,5.97
2019-05-22T17:50:24.924Z,7.28
2019-05-22T17:52:40.904Z,7.40
2019-05-22T17:55:12.941Z,7.28
2019-05-22T17:57:43.897Z,6.12
2019-05-22T18:00:29.791Z,11.25
2019-05-22T18:03:02.726Z,6.60
2019-05-22T18:05:34.482Z,5.75
2019-05-22T18:08:05.556Z,6.40
2019-05-22T18:10:40.412Z,7.67
2019-05-22T18:13:10.865Z,7.20
2019-05-22T18:15:42.999Z,7.08
2019-05-22T18:18:14.545Z,7.00
2019-05-22T18:20:45.521Z,5.58
2019-05-22T18:23:15.968Z,7.28
2019-05-22T18:25:46.758Z,6.30
2019-05-22T18:28:18.351Z,6.30
2019-05-22T18:30:49.608Z,11.63
2019-05-22T18:33:20.004Z,4.85
2019-05-22T18:35:50.700Z,8.75
2019-05-22T18:38:21.008Z,3.60
2019-05-22T18:40:51.882Z,9.28
2019-05-22T18:43:23.198Z,12.20
2019-05-22T18:45:54.269Z,10.60
2019-05-22T18:48:24.629Z,12.45
2019-05-22T18:50:55.245Z,11.20
2019-05-22T18:53:25.846Z,5.78
2019-05-22T18:55:57.178Z,8.25
2019-05-22T18:58:27.532Z,9.63
2019-05-22T19:00:58.028Z,4.85
2019-05-22T19:03:28.836Z,6.30
2019-05-22T19:05:59.194Z,9.15
2019-05-22T19:08:30.816Z,9.70
2019-05-22T19:11:01.781Z,13.00
2019-05-22T19:13:32.490Z,8.90
2019-05-22T19:16:04.012Z,8.50
2019-05-22T19:18:34.608Z,16.20
2019-05-22T19:21:05.367Z,11.60
2019-05-22T19:23:35.981Z,10.05
2019-05-22T19:26:06.398Z,13.75
2019-05-22T19:28:43.403Z,9.05
2019-05-22T19:31:10.195Z,10.90
2019-05-22T19:33:41.476Z,11.08
2019-05-22T19:36:12.034Z,9.45
2019-05-22T19:38:42.940Z,6.80
2019-05-22T19:41:13.765Z,9.18
2019-05-22T19:43:43.980Z,7.42
2019-05-22T19:46:15.081Z,7.37
2019-05-22T19:48:45.383Z,5.90
2019-05-22T19:51:18.447Z,8.80
2019-05-22T19:53:50.057Z,8.93
2019-05-22T19:56:23.638Z,7.00
2019-05-22T19:58:52.827Z,11.25
2019-05-22T20:01:23.733Z,5.45
2019-05-22T20:03:54.196Z,4.92
2019-05-22T20:06:24.519Z,6.08
2019-05-22T20:08:54.873Z,4.03
2019-05-22T20:11:25.928Z,4.75
2019-05-22T20:13:56.519Z,8.75
2019-05-22T20:16:27.125Z,8.43
2019-05-22T20:18:59.033Z,8.48
2019-05-22T20:21:29.857Z,7.85
2019-05-22T20:24:00.564Z,6.67
2019-05-22T20:26:31.295Z,4.95
2019-05-22T20:29:02.149Z,5.15
2019-05-22T20:31:32.416Z,5.37
2019-05-22T20:34:02.906Z,5.50
2019-05-22T20:36:35.101Z,3.95
2019-05-22T20:39:09.353Z,6.90
2019-05-22T20:41:39.981Z,5.65
2019-05-22T20:44:10.942Z,6.97
2019-05-22T20:46:41.450Z,4.50
2019-05-22T20:49:12.184Z,6.30
2019-05-22T20:51:44.550Z,4.20
2019-05-22T20:54:15.101Z,12.05
2019-05-22T20:56:48.082Z,14.70
2019-05-22T20:59:18.446Z,11.18
2019-05-22T21:01:49.742Z,5.25
2019-05-22T21:04:22.996Z,4.78
2019-05-22T21:07:00.499Z,6.70
2019-05-22T21:09:31.542Z,5.10
2019-05-22T21:12:03.214Z,4.60
2019-05-22T21:14:33.444Z,10.48
2019-05-22T21:17:06.324Z,9.00
2019-05-22T21:19:36.916Z,9.93
2019-05-22T21:22:07.828Z,8.53
2019-05-22T21:24:40.860Z,10.32
2019-05-22T21:27:11.556Z,109.30
2019-05-22T21:29:41.883Z,193.05
2019-05-22T21:32:13.788Z,263.90
2019-05-22T21:34:44.909Z,212.90
2019-05-22T21:37:16.157Z,171.30
2019-05-22T21:39:46.580Z,137.55
2019-05-22T21:42:17.014Z,73.00
2019-05-22T21:44:47.293Z,23.15
2019-05-22T21:47:18.700Z,22.90
2019-05-22T21:49:52.825Z,32.30
2019-05-22T21:52:23.150Z,33.98
2019-05-22T21:54:53.534Z,26.90
2019-05-22T21:57:25.179Z,20.13
2019-05-22T21:59:55.986Z,22.35
2019-05-22T22:02:33.449Z,15.75
2019-05-22T22:05:05.046Z,20.92
2019-05-22T22:07:35.457Z,24.43
2019-05-22T22:10:10.411Z,17.60
2019-05-22T22:12:41.597Z,18.07
2019-05-22T22:15:13.125Z,17.62
2019-05-22T22:17:44.239Z,10.33
2019-05-22T22:20:16.762Z,11.03
2019-05-22T22:22:49.155Z,47.17
2019-05-22T22:25:22.210Z,160.40
2019-05-22T22:27:54.435Z,267.93
2019-05-22T22:30:29.873Z,214.27
2019-05-22T22:33:03.137Z,82.72
2019-05-22T22:35:33.527Z,33.02
2019-05-22T22:38:04.367Z,19.90
2019-05-22T22:40:35.750Z,14.60
2019-05-22T22:43:07.901Z,11.08
2019-05-22T22:45:49.761Z,7.60
2019-05-22T22:48:22.969Z,14.00
2019-05-22T22:50:53.566Z,17.10
2019-05-22T22:53:23.958Z,13.05
2019-05-22T22:55:54.674Z,12.33
2019-05-22T22:58:25.023Z,12.33
2019-05-22T23:00:57.761Z,11.15
2019-05-22T23:03:30.029Z,13.50
2019-05-22T23:06:01.076Z,10.80
2019-05-22T23:08:34.835Z,12.40
2019-05-22T23:11:06.951Z,9.50
2019-05-22T23:13:38.417Z,9.23
2019-05-22T23:16:09.419Z,9.30
2019-05-22T23:19:26.878Z,8.20
2019-05-22T23:21:56.282Z,11.83
2019-05-22T23:24:28.158Z,7.97
2019-05-22T23:26:59.052Z,9.83
2019-05-22T23:29:30.756Z,12.10
2019-05-22T23:32:02.430Z,9.23
2019-05-22T23:34:33.192Z,11.57
2019-05-22T23:37:04.164Z,13.90
2019-05-22T23:39:35.219Z,11.77
2019-05-22T23:42:12.405Z,6.65
2019-05-22T23:44:42.693Z,6.50
2019-05-22T23:47:14.327Z,15.67
2019-05-22T23:49:45.798Z,5.67
2019-05-22T23:52:17.793Z,7.13
2019-05-22T23:54:49.325Z,7.85
2019-05-22T23:57:20.490Z,9.33
2019-05-22T23:59:56.865Z,11.33
